sensor_id;sensor_type;location;lat;lon;timestamp;P1;durP1;ratioP1;P2;durP2;ratioP2
64235;SDS011;50564;47.402;9.740;2022-12-18T00:03:56;41.88;;;24.13;;
64235;SDS011;50564;47.402;9.740;2022-12-18T00:08:58;42.58;;;23.23;;
64235;SDS011;50564;47.402;9.740;2022-12-18T00:13:59;40.10;;;21.13;;
64235;SDS011;50564;47.402;9.740;2022-12-18T00:19:00;39.63;;;21.63;;
64235;SDS011;50564;47.402;9.740;2022-12-18T00:24:00;41.05;;;20.80;;
64235;SDS011;50564;47.402;9.740;2022-12-18T00:29:02;36.83;;;21.02;;
64235;SDS011;50564;47.402;9.740;2022-12-18T00:34:05;45.30;;;23.75;;
64235;SDS011;50564;47.402;9.740;2022-12-18T00:39:06;43.38;;;22.55;;
64235;SDS011;50564;47.402;9.740;2022-12-18T00:44:08;48.90;;;24.23;;
64235;SDS011;50564;47.402;9.740;2022-12-18T00:49:12;39.38;;;22.02;;
64235;SDS011;50564;47.402;9.740;2022-12-18T00:54:13;47.67;;;25.00;;
64235;SDS011;50564;47.402;9.740;2022-12-18T00:59:13;45.50;;;24.85;;
64235;SDS011;50564;47.402;9.740;2022-12-18T01:04:14;44.45;;;25.38;;
64235;SDS011;50564;47.402;9.740;2022-12-18T01:09:19;44.10;;;22.67;;
64235;SDS011;50564;47.402;9.740;2022-12-18T01:14:19;44.50;;;22.92;;
64235;SDS011;50564;47.402;9.740;2022-12-18T01:19:20;47.03;;;23.95;;
64235;SDS011;50564;47.402;9.740;2022-12-18T01:24:21;42.45;;;23.15;;
64235;SDS011;50564;47.402;9.740;2022-12-18T01:29:22;41.85;;;20.98;;
64235;SDS011;50564;47.402;9.740;2022-12-18T01:34:23;48.08;;;24.05;;
64235;SDS011;50564;47.402;9.740;2022-12-18T01:39:24;48.92;;;23.83;;
64235;SDS011;50564;47.402;9.740;2022-12-18T01:49:59;48.90;;;26.27;;
64235;SDS011;50564;47.402;9.740;2022-12-18T01:55:03;54.13;;;25.88;;
64235;SDS011;50564;47.402;9.740;2022-12-18T02:00:09;46.90;;;23.42;;
64235;SDS011;50564;47.402;9.740;2022-12-18T02:05:16;46.13;;;22.60;;
64235;SDS011;50564;47.402;9.740;2022-12-18T02:15:34;48.00;;;24.95;;
64235;SDS011;50564;47.402;9.740;2022-12-18T02:20:54;50.05;;;24.80;;
64235;SDS011;50564;47.402;9.740;2022-12-18T02:26:22;57.20;;;27.27;;
64235;SDS011;50564;47.402;9.740;2022-12-18T02:31:36;41.50;;;20.20;;
64235;SDS011;50564;47.402;9.740;2022-12-18T02:36:51;41.10;;;22.45;;
64235;SDS011;50564;47.402;9.740;2022-12-18T02:41:56;54.28;;;27.38;;
64235;SDS011;50564;47.402;9.740;2022-12-18T02:46:58;50.00;;;25.20;;
64235;SDS011;50564;47.402;9.740;2022-12-18T02:52:01;54.10;;;25.75;;
64235;SDS011;50564;47.402;9.740;2022-12-18T02:57:23;34.70;;;17.27;;
64235;SDS011;50564;47.402;9.740;2022-12-18T03:08:07;46.78;;;22.75;;
64235;SDS011;50564;47.402;9.740;2022-12-18T03:13:14;44.38;;;21.98;;
64235;SDS011;50564;47.402;9.740;2022-12-18T03:18:22;41.92;;;21.63;;
64235;SDS011;50564;47.402;9.740;2022-12-18T03:23:27;43.20;;;20.60;;
64235;SDS011;50564;47.402;9.740;2022-12-18T03:28:32;46.78;;;20.52;;
64235;SDS011;50564;47.402;9.740;2022-12-18T03:33:52;47.17;;;22.48;;
64235;SDS011;50564;47.402;9.740;2022-12-18T03:38:57;44.53;;;20.48;;
64235;SDS011;50564;47.402;9.740;2022-12-18T03:44:06;46.53;;;22.92;;
64235;SDS011;50564;47.402;9.740;2022-12-18T03:49:39;46.55;;;21.10;;
64235;SDS011;50564;47.402;9.740;2022-12-18T03:54:48;46.50;;;22.33;;
64235;SDS011;50564;47.402;9.740;2022-12-18T03:59:54;44.53;;;21.35;;
64235;SDS011;50564;47.402;9.740;2022-12-18T04:05:01;49.33;;;20.77;;
64235;SDS011;50564;47.402;9.740;2022-12-18T04:10:04;49.08;;;22.45;;
64235;SDS011;50564;47.402;9.740;2022-12-18T04:15:07;40.13;;;20.30;;
64235;SDS011;50564;47.402;9.740;2022-12-18T04:20:08;43.85;;;20.30;;
64235;SDS011;50564;47.402;9.740;2022-12-18T04:25:13;40.10;;;19.70;;
64235;SDS011;50564;47.402;9.740;2022-12-18T04:30:24;44.80;;;21.92;;
64235;SDS011;50564;47.402;9.740;2022-12-18T04:35:25;51.17;;;21.58;;
64235;SDS011;50564;47.402;9.740;2022-12-18T04:40:25;41.70;;;21.30;;
64235;SDS011;50564;47.402;9.740;2022-12-18T04:45:26;44.42;;;21.02;;
64235;SDS011;50564;47.402;9.740;2022-12-18T04:50:27;44.70;;;20.13;;
64235;SDS011;50564;47.402;9.740;2022-12-18T04:55:28;38.13;;;18.17;;
64235;SDS011;50564;47.402;9.740;2022-12-18T05:00:29;39.50;;;19.27;;
64235;SDS011;50564;47.402;9.740;2022-12-18T05:05:29;40.83;;;18.05;;
64235;SDS011;50564;47.402;9.740;2022-12-18T05:10:30;40.22;;;19.17;;
64235;SDS011;50564;47.402;9.740;2022-12-18T05:15:31;35.80;;;16.45;;
64235;SDS011;50564;47.402;9.740;2022-12-18T05:20:33;35.92;;;17.45;;
64235;SDS011;50564;47.402;9.740;2022-12-18T05:25:33;34.25;;;16.05;;
64235;SDS011;50564;47.402;9.740;2022-12-18T05:30:34;33.03;;;15.15;;
64235;SDS011;50564;47.402;9.740;2022-12-18T05:35:34;32.63;;;14.88;;
64235;SDS011;50564;47.402;9.740;2022-12-18T05:40:35;31.77;;;15.70;;
64235;SDS011;50564;47.402;9.740;2022-12-18T05:45:37;31.55;;;14.52;;
64235;SDS011;50564;47.402;9.740;2022-12-18T05:50:39;28.55;;;14.00;;
64235;SDS011;50564;47.402;9.740;2022-12-18T05:55:41;28.00;;;14.68;;
64235;SDS011;50564;47.402;9.740;2022-12-18T06:00:44;33.90;;;16.52;;
64235;SDS011;50564;47.402;9.740;2022-12-18T06:05:46;35.78;;;16.13;;
64235;SDS011;50564;47.402;9.740;2022-12-18T06:10:49;34.00;;;16.77;;
64235;SDS011;50564;47.402;9.740;2022-12-18T06:15:51;33.60;;;16.83;;
64235;SDS011;50564;47.402;9.740;2022-12-18T06:20:55;33.67;;;17.02;;
64235;SDS011;50564;47.402;9.740;2022-12-18T06:25:56;27.17;;;13.32;;
64235;SDS011;50564;47.402;9.740;2022-12-18T06:30:57;31.77;;;16.58;;
64235;SDS011;50564;47.402;9.740;2022-12-18T06:36:02;36.40;;;18.98;;
64235;SDS011;50564;47.402;9.740;2022-12-18T06:41:08;28.92;;;14.40;;
64235;SDS011;50564;47.402;9.740;2022-12-18T06:46:16;35.30;;;16.42;;
64235;SDS011;50564;47.402;9.740;2022-12-18T06:51:17;30.75;;;14.57;;
64235;SDS011;50564;47.402;9.740;2022-12-18T06:56:21;22.00;;;11.65;;
64235;SDS011;50564;47.402;9.740;2022-12-18T07:01:22;33.47;;;15.50;;
64235;SDS011;50564;47.402;9.740;2022-12-18T07:06:23;30.88;;;17.77;;
64235;SDS011;50564;47.402;9.740;2022-12-18T07:11:25;34.45;;;19.35;;
64235;SDS011;50564;47.402;9.740;2022-12-18T07:16:26;30.95;;;15.18;;
64235;SDS011;50564;47.402;9.740;2022-12-18T07:21:28;35.25;;;17.05;;
64235;SDS011;50564;47.402;9.740;2022-12-18T07:26:29;42.13;;;17.75;;
64235;SDS011;50564;47.402;9.740;2022-12-18T07:31:29;33.42;;;16.25;;
64235;SDS011;50564;47.402;9.740;2022-12-18T07:36:30;41.42;;;19.13;;
64235;SDS011;50564;47.402;9.740;2022-12-18T07:41:31;32.33;;;16.88;;
64235;SDS011;50564;47.402;9.740;2022-12-18T07:46:41;33.42;;;18.35;;
64235;SDS011;50564;47.402;9.740;2022-12-18T07:51:41;30.63;;;17.65;;
64235;SDS011;50564;47.402;9.740;2022-12-18T07:56:42;32.50;;;14.60;;
64235;SDS011;50564;47.402;9.740;2022-12-18T08:01:43;31.05;;;14.70;;
64235;SDS011;50564;47.402;9.740;2022-12-18T08:06:43;33.88;;;14.85;;
64235;SDS011;50564;47.402;9.740;2022-12-18T08:11:44;32.03;;;15.75;;
64235;SDS011;50564;47.402;9.740;2022-12-18T08:16:45;35.60;;;15.95;;
64235;SDS011;50564;47.402;9.740;2022-12-18T08:21:45;41.65;;;17.33;;
64235;SDS011;50564;47.402;9.740;2022-12-18T08:26:46;40.00;;;16.88;;
64235;SDS011;50564;47.402;9.740;2022-12-18T08:31:46;28.30;;;13.68;;
64235;SDS011;50564;47.402;9.740;2022-12-18T08:36:47;29.40;;;15.00;;
64235;SDS011;50564;47.402;9.740;2022-12-18T08:41:48;32.05;;;13.57;;
64235;SDS011;50564;47.402;9.740;2022-12-18T08:47:08;28.42;;;14.25;;
64235;SDS011;50564;47.402;9.740;2022-12-18T08:52:09;27.83;;;13.63;;
64235;SDS011;50564;47.402;9.740;2022-12-18T08:57:09;27.42;;;12.38;;
64235;SDS011;50564;47.402;9.740;2022-12-18T09:02:10;29.30;;;14.57;;
64235;SDS011;50564;47.402;9.740;2022-12-18T09:07:11;27.45;;;13.98;;
64235;SDS011;50564;47.402;9.740;2022-12-18T09:12:12;26.02;;;14.23;;
64235;SDS011;50564;47.402;9.740;2022-12-18T09:17:12;31.65;;;14.35;;
64235;SDS011;50564;47.402;9.740;2022-12-18T09:22:13;22.00;;;10.88;;
64235;SDS011;50564;47.402;9.740;2022-12-18T09:27:14;25.23;;;12.40;;
64235;SDS011;50564;47.402;9.740;2022-12-18T09:32:14;46.00;;;20.85;;
64235;SDS011;50564;47.402;9.740;2022-12-18T09:37:15;31.17;;;15.85;;
64235;SDS011;50564;47.402;9.740;2022-12-18T09:42:20;22.15;;;10.93;;
64235;SDS011;50564;47.402;9.740;2022-12-18T09:47:27;24.40;;;13.32;;
64235;SDS011;50564;47.402;9.740;2022-12-18T09:52:33;26.27;;;11.77;;
64235;SDS011;50564;47.402;9.740;2022-12-18T09:57:38;24.13;;;11.50;;
64235;SDS011;50564;47.402;9.740;2022-12-18T10:02:42;24.10;;;12.60;;
64235;SDS011;50564;47.402;9.740;2022-12-18T10:07:52;20.77;;;10.98;;
64235;SDS011;50564;47.402;9.740;2022-12-18T10:18:20;24.77;;;11.52;;
64235;SDS011;50564;47.402;9.740;2022-12-18T10:23:46;25.38;;;13.60;;
64235;SDS011;50564;47.402;9.740;2022-12-18T10:28:57;26.42;;;14.77;;
64235;SDS011;50564;47.402;9.740;2022-12-18T10:33:58;26.45;;;14.70;;
64235;SDS011;50564;47.402;9.740;2022-12-18T10:39:16;27.77;;;14.40;;
64235;SDS011;50564;47.402;9.740;2022-12-18T10:44:20;24.67;;;12.60;;
64235;SDS011;50564;47.402;9.740;2022-12-18T10:54:33;24.98;;;13.55;;
64235;SDS011;50564;47.402;9.740;2022-12-18T10:59:37;29.58;;;14.57;;
64235;SDS011;50564;47.402;9.740;2022-12-18T11:04:51;25.88;;;12.73;;
64235;SDS011;50564;47.402;9.740;2022-12-18T11:09:59;28.65;;;15.15;;
64235;SDS011;50564;47.402;9.740;2022-12-18T11:15:00;33.08;;;15.82;;
64235;SDS011;50564;47.402;9.740;2022-12-18T11:20:02;26.60;;;14.35;;
64235;SDS011;50564;47.402;9.740;2022-12-18T11:25:05;26.08;;;13.27;;
64235;SDS011;50564;47.402;9.740;2022-12-18T11:30:26;33.00;;;16.50;;
64235;SDS011;50564;47.402;9.740;2022-12-18T11:35:35;36.38;;;17.95;;
64235;SDS011;50564;47.402;9.740;2022-12-18T11:40:43;28.92;;;15.23;;
64235;SDS011;50564;47.402;9.740;2022-12-18T11:45:55;29.77;;;14.85;;
64235;SDS011;50564;47.402;9.740;2022-12-18T11:51:03;32.40;;;16.35;;
64235;SDS011;50564;47.402;9.740;2022-12-18T12:01:22;35.15;;;17.10;;
64235;SDS011;50564;47.402;9.740;2022-12-18T12:17:17;30.42;;;15.82;;
64235;SDS011;50564;47.402;9.740;2022-12-18T12:23:02;33.10;;;17.13;;
64235;SDS011;50564;47.402;9.740;2022-12-18T12:38:57;28.60;;;15.40;;
64235;SDS011;50564;47.402;9.740;2022-12-18T12:44:02;31.35;;;16.92;;
64235;SDS011;50564;47.402;9.740;2022-12-18T12:49:14;31.42;;;17.02;;
64235;SDS011;50564;47.402;9.740;2022-12-18T12:54:19;32.03;;;17.63;;
64235;SDS011;50564;47.402;9.740;2022-12-18T12:59:24;32.50;;;16.55;;
64235;SDS011;50564;47.402;9.740;2022-12-18T13:20:32;36.45;;;18.38;;
64235;SDS011;50564;47.402;9.740;2022-12-18T13:25:40;30.10;;;15.15;;
64235;SDS011;50564;47.402;9.740;2022-12-18T13:30:45;34.88;;;17.25;;
64235;SDS011;50564;47.402;9.740;2022-12-18T13:51:18;30.50;;;16.45;;
64235;SDS011;50564;47.402;9.740;2022-12-18T13:56:24;32.28;;;17.35;;
64235;SDS011;50564;47.402;9.740;2022-12-18T14:01:26;36.00;;;17.15;;
64235;SDS011;50564;47.402;9.740;2022-12-18T14:06:26;31.60;;;17.75;;
64235;SDS011;50564;47.402;9.740;2022-12-18T14:11:27;32.10;;;18.75;;
64235;SDS011;50564;47.402;9.740;2022-12-18T14:16:28;37.15;;;18.08;;
64235;SDS011;50564;47.402;9.740;2022-12-18T14:21:29;30.65;;;15.52;;
64235;SDS011;50564;47.402;9.740;2022-12-18T14:26:30;33.78;;;17.60;;
64235;SDS011;50564;47.402;9.740;2022-12-18T14:31:31;35.97;;;17.08;;
64235;SDS011;50564;47.402;9.740;2022-12-18T14:36:32;30.60;;;16.35;;
64235;SDS011;50564;47.402;9.740;2022-12-18T14:41:33;29.55;;;15.60;;
64235;SDS011;50564;47.402;9.740;2022-12-18T14:46:40;26.95;;;15.02;;
64235;SDS011;50564;47.402;9.740;2022-12-18T14:57:29;37.28;;;17.98;;
64235;SDS011;50564;47.402;9.740;2022-12-18T15:02:36;37.15;;;18.45;;
64235;SDS011;50564;47.402;9.740;2022-12-18T15:07:43;39.13;;;20.30;;
64235;SDS011;50564;47.402;9.740;2022-12-18T15:12:45;34.88;;;18.00;;
64235;SDS011;50564;47.402;9.740;2022-12-18T15:17:48;38.28;;;19.40;;
64235;SDS011;50564;47.402;9.740;2022-12-18T15:22:49;34.42;;;17.95;;
64235;SDS011;50564;47.402;9.740;2022-12-18T15:27:50;36.42;;;19.30;;
64235;SDS011;50564;47.402;9.740;2022-12-18T15:32:51;32.15;;;17.45;;
64235;SDS011;50564;47.402;9.740;2022-12-18T15:37:56;40.03;;;17.92;;
64235;SDS011;50564;47.402;9.740;2022-12-18T15:42:57;36.65;;;18.90;;
64235;SDS011;50564;47.402;9.740;2022-12-18T15:48:22;32.47;;;17.63;;
64235;SDS011;50564;47.402;9.740;2022-12-18T15:53:25;33.50;;;18.40;;
64235;SDS011;50564;47.402;9.740;2022-12-18T15:58:31;41.17;;;20.25;;
64235;SDS011;50564;47.402;9.740;2022-12-18T16:03:34;34.97;;;16.88;;
64235;SDS011;50564;47.402;9.740;2022-12-18T16:08:37;38.97;;;20.63;;
64235;SDS011;50564;47.402;9.740;2022-12-18T16:13:38;39.15;;;21.90;;
64235;SDS011;50564;47.402;9.740;2022-12-18T16:18:39;78.55;;;36.50;;
64235;SDS011;50564;47.402;9.740;2022-12-18T16:23:40;38.03;;;19.10;;
64235;SDS011;50564;47.402;9.740;2022-12-18T16:28:42;56.92;;;26.75;;
64235;SDS011;50564;47.402;9.740;2022-12-18T16:33:44;37.88;;;19.63;;
64235;SDS011;50564;47.402;9.740;2022-12-18T16:38:45;37.85;;;19.73;;
64235;SDS011;50564;47.402;9.740;2022-12-18T16:43:47;33.42;;;18.35;;
64235;SDS011;50564;47.402;9.740;2022-12-18T16:48:52;41.55;;;21.50;;
64235;SDS011;50564;47.402;9.740;2022-12-18T16:53:56;41.00;;;20.50;;
64235;SDS011;50564;47.402;9.740;2022-12-18T16:58:59;43.00;;;22.15;;
64235;SDS011;50564;47.402;9.740;2022-12-18T17:04:02;40.95;;;20.10;;
64235;SDS011;50564;47.402;9.740;2022-12-18T17:09:07;41.13;;;21.30;;
64235;SDS011;50564;47.402;9.740;2022-12-18T17:14:14;58.70;;;27.70;;
64235;SDS011;50564;47.402;9.740;2022-12-18T17:19:17;39.47;;;21.92;;
64235;SDS011;50564;47.402;9.740;2022-12-18T17:24:19;39.67;;;20.25;;
64235;SDS011;50564;47.402;9.740;2022-12-18T17:29:21;48.17;;;25.05;;
64235;SDS011;50564;47.402;9.740;2022-12-18T17:34:22;44.67;;;23.75;;
64235;SDS011;50564;47.402;9.740;2022-12-18T17:39:23;79.10;;;34.50;;
64235;SDS011;50564;47.402;9.740;2022-12-18T17:44:25;72.38;;;31.75;;
64235;SDS011;50564;47.402;9.740;2022-12-18T17:49:26;45.45;;;22.48;;
64235;SDS011;50564;47.402;9.740;2022-12-18T17:54:27;42.60;;;21.92;;
64235;SDS011;50564;47.402;9.740;2022-12-18T17:59:28;42.75;;;21.77;;
64235;SDS011;50564;47.402;9.740;2022-12-18T18:04:29;43.17;;;22.08;;
64235;SDS011;50564;47.402;9.740;2022-12-18T18:09:32;55.90;;;29.48;;
64235;SDS011;50564;47.402;9.740;2022-12-18T18:14:34;43.00;;;22.13;;
64235;SDS011;50564;47.402;9.740;2022-12-18T18:19:35;60.63;;;29.92;;
64235;SDS011;50564;47.402;9.740;2022-12-18T18:24:39;47.83;;;22.70;;
64235;SDS011;50564;47.402;9.740;2022-12-18T18:29:40;46.00;;;22.13;;
64235;SDS011;50564;47.402;9.740;2022-12-18T18:34:41;42.30;;;21.38;;
64235;SDS011;50564;47.402;9.740;2022-12-18T18:39:42;41.60;;;20.23;;
64235;SDS011;50564;47.402;9.740;2022-12-18T18:44:44;42.53;;;23.15;;
64235;SDS011;50564;47.402;9.740;2022-12-18T18:49:46;48.58;;;23.35;;
64235;SDS011;50564;47.402;9.740;2022-12-18T18:54:47;51.72;;;24.08;;
64235;SDS011;50564;47.402;9.740;2022-12-18T18:59:48;44.33;;;22.77;;
64235;SDS011;50564;47.402;9.740;2022-12-18T19:04:49;50.30;;;24.38;;
64235;SDS011;50564;47.402;9.740;2022-12-18T19:09:50;54.47;;;28.60;;
64235;SDS011;50564;47.402;9.740;2022-12-18T19:14:55;51.97;;;25.98;;
64235;SDS011;50564;47.402;9.740;2022-12-18T19:19:57;48.97;;;25.20;;
64235;SDS011;50564;47.402;9.740;2022-12-18T19:24:58;53.42;;;26.83;;
64235;SDS011;50564;47.402;9.740;2022-12-18T19:29:59;49.75;;;25.85;;
64235;SDS011;50564;47.402;9.740;2022-12-18T19:35:06;44.25;;;23.95;;
64235;SDS011;50564;47.402;9.740;2022-12-18T19:40:09;51.25;;;24.98;;
64235;SDS011;50564;47.402;9.740;2022-12-18T19:45:10;52.63;;;27.73;;
64235;SDS011;50564;47.402;9.740;2022-12-18T19:50:11;52.40;;;27.33;;
64235;SDS011;50564;47.402;9.740;2022-12-18T19:55:13;50.42;;;25.90;;
64235;SDS011;50564;47.402;9.740;2022-12-18T20:00:14;50.92;;;27.15;;
64235;SDS011;50564;47.402;9.740;2022-12-18T20:05:15;53.95;;;26.08;;
64235;SDS011;50564;47.402;9.740;2022-12-18T20:10:17;53.88;;;27.48;;
64235;SDS011;50564;47.402;9.740;2022-12-18T20:15:18;51.33;;;27.35;;
64235;SDS011;50564;47.402;9.740;2022-12-18T20:20:19;55.05;;;29.75;;
64235;SDS011;50564;47.402;9.740;2022-12-18T20:25:20;65.10;;;33.30;;
64235;SDS011;50564;47.402;9.740;2022-12-18T20:30:25;55.45;;;29.17;;
64235;SDS011;50564;47.402;9.740;2022-12-18T20:35:26;55.47;;;27.38;;
64235;SDS011;50564;47.402;9.740;2022-12-18T20:40:31;53.90;;;26.02;;
64235;SDS011;50564;47.402;9.740;2022-12-18T20:45:33;60.03;;;28.60;;
64235;SDS011;50564;47.402;9.740;2022-12-18T20:50:35;52.45;;;27.00;;
64235;SDS011;50564;47.402;9.740;2022-12-18T20:55:39;64.85;;;30.25;;
64235;SDS011;50564;47.402;9.740;2022-12-18T21:00:41;56.83;;;28.73;;
64235;SDS011;50564;47.402;9.740;2022-12-18T21:05:41;57.42;;;27.85;;
64235;SDS011;50564;47.402;9.740;2022-12-18T21:10:42;48.67;;;25.33;;
64235;SDS011;50564;47.402;9.740;2022-12-18T21:15:43;54.13;;;28.08;;
64235;SDS011;50564;47.402;9.740;2022-12-18T21:20:44;52.15;;;26.23;;
64235;SDS011;50564;47.402;9.740;2022-12-18T21:25:46;55.42;;;27.88;;
64235;SDS011;50564;47.402;9.740;2022-12-18T21:30:47;54.60;;;29.38;;
64235;SDS011;50564;47.402;9.740;2022-12-18T21:35:48;66.75;;;32.22;;
64235;SDS011;50564;47.402;9.740;2022-12-18T21:40:48;55.20;;;30.33;;
64235;SDS011;50564;47.402;9.740;2022-12-18T21:45:49;62.53;;;29.50;;
64235;SDS011;50564;47.402;9.740;2022-12-18T21:50:50;55.97;;;28.50;;
64235;SDS011;50564;47.402;9.740;2022-12-18T21:55:57;64.32;;;29.77;;
64235;SDS011;50564;47.402;9.740;2022-12-18T22:00:58;61.42;;;27.67;;
64235;SDS011;50564;47.402;9.740;2022-12-18T22:05:59;56.47;;;26.50;;
64235;SDS011;50564;47.402;9.740;2022-12-18T22:10:59;60.95;;;27.88;;
64235;SDS011;50564;47.402;9.740;2022-12-18T22:16:00;55.67;;;29.70;;
64235;SDS011;50564;47.402;9.740;2022-12-18T22:21:01;52.70;;;27.30;;
64235;SDS011;50564;47.402;9.740;2022-12-18T22:26:07;57.58;;;29.33;;
64235;SDS011;50564;47.402;9.740;2022-12-18T22:31:10;58.88;;;29.73;;
64235;SDS011;50564;47.402;9.740;2022-12-18T22:36:11;55.83;;;27.48;;
64235;SDS011;50564;47.402;9.740;2022-12-18T22:41:11;56.20;;;30.95;;
64235;SDS011;50564;47.402;9.740;2022-12-18T22:46:16;60.42;;;31.05;;
64235;SDS011;50564;47.402;9.740;2022-12-18T22:51:17;52.45;;;28.15;;
64235;SDS011;50564;47.402;9.740;2022-12-18T22:56:18;48.45;;;25.10;;
64235;SDS011;50564;47.402;9.740;2022-12-18T23:01:20;49.17;;;26.52;;
64235;SDS011;50564;47.402;9.740;2022-12-18T23:06:22;47.45;;;26.17;;
64235;SDS011;50564;47.402;9.740;2022-12-18T23:11:23;56.60;;;28.13;;
64235;SDS011;50564;47.402;9.740;2022-12-18T23:16:25;47.63;;;24.70;;
64235;SDS011;50564;47.402;9.740;2022-12-18T23:21:27;48.20;;;23.88;;
64235;SDS011;50564;47.402;9.740;2022-12-18T23:26:27;49.58;;;26.52;;
64235;SDS011;50564;47.402;9.740;2022-12-18T23:31:35;49.72;;;26.25;;
64235;SDS011;50564;47.402;9.740;2022-12-18T23:36:37;49.53;;;25.23;;
64235;SDS011;50564;47.402;9.740;2022-12-18T23:41:38;47.38;;;24.38;;
64235;SDS011;50564;47.402;9.740;2022-12-18T23:46:38;46.10;;;23.90;;
64235;SDS011;50564;47.402;9.740;2022-12-18T23:51:39;45.78;;;22.95;;
64235;SDS011;50564;47.402;9.740;2022-12-18T23:56:40;49.42;;;24.80;;
